Terminal Aerodrome Forecast
Issued by NWS Louisville, KY

Home | Current Version | Previous Version | Text Only | Print | Product List | Glossary On
Versions: 1 2 3 4 5 6 7 8 9 10 11 12 13 14 15 16 17 18 19 20 21 22
000
FTUS43 KLMK 290535
TAFBWG
TAF
KBWG 290535Z 2906/3006 30004KT P6SM FEW050
     FM290700 VRB03KT 5SM BR BKN035
     FM291100 VRB03KT 3SM BR OVC008
     FM291700 29006KT P6SM VCSH BKN015
     FM300000 VRB03KT P6SM BKN035=

USA.gov is the U.S. government's official web portal to all federal, state and local government web resources and services.